createdAt,value
2019-03-11T00:02:12.153Z,7.80
2019-03-11T00:04:44.369Z,7.76
2019-03-11T00:07:16.679Z,7.75
2019-03-11T00:09:48.904Z,7.68
2019-03-11T00:12:21.155Z,7.74
2019-03-11T00:14:53.414Z,7.65
2019-03-11T00:17:25.666Z,7.66
2019-03-11T00:19:57.891Z,7.52
2019-03-11T00:22:30.142Z,7.48
2019-03-11T00:25:03.107Z,7.53
2019-03-11T00:27:36.110Z,7.47
2019-03-11T00:30:08.790Z,7.50
2019-03-11T00:32:40.772Z,7.54
2019-03-11T00:35:12.716Z,7.47
2019-03-11T00:37:44.721Z,7.51
2019-03-11T00:40:16.695Z,7.51
2019-03-11T00:42:48.709Z,7.14
2019-03-11T00:45:20.742Z,7.22
2019-03-11T00:48:01.510Z,7.24
2019-03-11T00:50:27.131Z,7.19
2019-03-11T00:52:59.123Z,7.14
2019-03-11T00:55:31.048Z,7.03
2019-03-11T00:58:03.137Z,7.03
2019-03-11T01:00:36.048Z,6.91
2019-03-11T01:03:08.013Z,6.93
2019-03-11T01:05:39.987Z,6.72
2019-03-11T01:08:11.988Z,6.80
2019-03-11T01:10:43.934Z,6.88
2019-03-11T01:13:15.912Z,6.86
2019-03-11T01:15:47.916Z,6.92
2019-03-11T01:18:20.039Z,6.82
2019-03-11T01:20:52.030Z,6.81
2019-03-11T01:23:25.144Z,6.79
2019-03-11T01:25:57.073Z,6.79
2019-03-11T01:28:29.061Z,6.85
2019-03-11T01:31:01.025Z,6.86
2019-03-11T01:33:33.004Z,6.81
2019-03-11T01:36:04.949Z,6.82
2019-03-11T01:38:38.732Z,6.67
2019-03-11T01:41:10.677Z,6.54
2019-03-11T01:43:42.644Z,6.46
2019-03-11T01:46:14.615Z,6.49
2019-03-11T01:48:46.563Z,6.43
2019-03-11T01:51:18.600Z,6.38
2019-03-11T01:53:50.540Z,6.45
2019-03-11T01:56:22.517Z,6.48
2019-03-11T01:58:54.458Z,6.49
2019-03-11T02:01:26.420Z,6.32
2019-03-11T02:03:58.366Z,6.33
2019-03-11T02:06:30.353Z,6.31
2019-03-11T02:09:02.559Z,6.24
2019-03-11T02:11:34.629Z,6.11
2019-03-11T02:14:06.570Z,6.11
2019-03-11T02:16:38.553Z,6.00
2019-03-11T02:19:10.511Z,6.01
2019-03-11T02:21:42.471Z,6.16
2019-03-11T02:24:14.414Z,6.04
2019-03-11T02:26:46.382Z,5.95
2019-03-11T02:29:18.322Z,5.98
2019-03-11T02:31:50.290Z,6.00
2019-03-11T02:34:22.229Z,5.95
2019-03-11T02:36:54.192Z,5.95
2019-03-11T02:39:26.136Z,6.03
2019-03-11T02:41:58.096Z,5.93
2019-03-11T02:44:30.112Z,5.87
2019-03-11T02:47:02.081Z,5.92
2019-03-11T02:49:34.041Z,5.97
2019-03-11T02:52:06.001Z,5.94
2019-03-11T02:54:37.951Z,5.97
2019-03-11T02:57:09.902Z,5.91
2019-03-11T02:59:41.850Z,6.11
2019-03-11T03:02:33.375Z,6.22
2019-03-11T03:05:46.383Z,6.20
2019-03-11T03:08:18.338Z,6.14
2019-03-11T03:10:50.270Z,6.20
2019-03-11T03:13:22.234Z,6.07
2019-03-11T03:15:54.164Z,6.17
2019-03-11T03:18:26.114Z,6.17
2019-03-11T03:20:58.060Z,6.24
2019-03-11T03:23:30.016Z,6.26
2019-03-11T03:26:01.952Z,6.27
2019-03-11T03:28:33.916Z,6.34
2019-03-11T03:31:05.870Z,6.24
2019-03-11T03:33:37.795Z,6.19
2019-03-11T03:36:09.729Z,6.36
2019-03-11T03:41:20.013Z,6.36
2019-03-11T03:43:51.957Z,6.36
2019-03-11T03:46:23.894Z,6.33
2019-03-11T03:48:55.858Z,6.43
2019-03-11T03:51:27.794Z,6.43
2019-03-11T03:53:59.764Z,6.39
2019-03-11T03:56:31.707Z,6.48
2019-03-11T03:59:03.674Z,6.50
2019-03-11T04:01:35.621Z,6.40
2019-03-11T04:04:07.576Z,6.51
2019-03-11T04:06:39.503Z,6.48
2019-03-11T04:09:11.908Z,6.58
2019-03-11T04:11:43.853Z,6.62
2019-03-11T04:14:15.805Z,6.54
2019-03-11T04:16:47.732Z,6.55
2019-03-11T04:19:19.708Z,6.33
2019-03-11T04:21:51.660Z,6.30
2019-03-11T04:24:23.717Z,6.17
2019-03-11T04:26:56.074Z,6.05
2019-03-11T04:29:28.033Z,5.87
2019-03-11T04:31:59.974Z,5.76
2019-03-11T04:34:31.987Z,5.73
2019-03-11T04:37:03.934Z,5.64
2019-03-11T04:39:35.871Z,5.60
2019-03-11T04:42:07.839Z,5.58
2019-03-11T04:44:39.816Z,5.48
2019-03-11T04:47:11.745Z,5.51
2019-03-11T04:49:43.721Z,5.63
2019-03-11T04:52:15.674Z,5.67
2019-03-11T04:54:47.617Z,5.79
2019-03-11T04:57:19.568Z,5.82
2019-03-11T04:59:51.510Z,5.83
2019-03-11T05:02:23.554Z,5.92
2019-03-11T05:04:55.519Z,5.86
2019-03-11T05:07:27.510Z,5.81
2019-03-11T05:09:59.447Z,5.86
2019-03-11T05:12:31.425Z,5.87
2019-03-11T05:15:04.045Z,5.74
2019-03-11T05:17:36.014Z,5.88
2019-03-11T05:20:08.164Z,5.85
2019-03-11T05:22:40.149Z,5.88
2019-03-11T05:25:12.087Z,5.96
2019-03-11T05:27:44.148Z,5.87
2019-03-11T05:30:16.328Z,5.82
2019-03-11T05:32:48.392Z,5.79
2019-03-11T05:35:20.345Z,5.88
2019-03-11T05:37:52.313Z,5.86
2019-03-11T05:40:24.259Z,5.79
2019-03-11T05:42:56.217Z,5.96
2019-03-11T05:45:28.173Z,5.81
2019-03-11T05:48:00.157Z,5.84
2019-03-11T05:50:32.106Z,5.81
2019-03-11T05:53:04.105Z,5.87
2019-03-11T05:55:36.072Z,5.93
2019-03-11T05:58:08.053Z,6.02
2019-03-11T06:00:40.008Z,5.96
2019-03-11T06:03:11.993Z,5.85
2019-03-11T06:05:43.988Z,5.85
2019-03-11T06:08:21.277Z,5.91
2019-03-11T06:10:53.210Z,5.88
2019-03-11T06:13:35.354Z,5.92
2019-03-11T06:15:59.032Z,5.91
2019-03-11T06:18:45.440Z,5.82
2019-03-11T06:21:28.954Z,5.95
2019-03-11T06:24:00.930Z,5.93
2019-03-11T06:26:32.873Z,6.04
2019-03-11T06:29:04.860Z,6.03
2019-03-11T06:31:36.800Z,6.03
2019-03-11T06:34:08.785Z,5.98
2019-03-11T06:36:40.725Z,5.99
2019-03-11T06:39:12.779Z,5.87
2019-03-11T06:41:44.725Z,5.83
2019-03-11T06:44:16.733Z,5.94
2019-03-11T06:46:48.713Z,5.91
2019-03-11T06:49:20.689Z,5.95
2019-03-11T06:51:52.646Z,5.95
2019-03-11T06:54:24.633Z,6.10
2019-03-11T06:56:56.583Z,6.24
2019-03-11T06:59:28.547Z,6.30
2019-03-11T07:02:00.509Z,6.33
2019-03-11T07:04:32.468Z,6.42
2019-03-11T07:07:04.447Z,6.42
2019-03-11T07:09:36.381Z,6.34
2019-03-11T07:12:08.358Z,6.37
2019-03-11T07:14:40.326Z,6.45
2019-03-11T07:17:12.274Z,6.47
2019-03-11T07:19:44.228Z,6.46
2019-03-11T07:22:16.191Z,6.52
2019-03-11T07:24:48.175Z,6.44
2019-03-11T07:27:20.178Z,6.42
2019-03-11T07:29:52.125Z,6.37
2019-03-11T07:32:24.093Z,6.11
2019-03-11T07:34:56.041Z,5.54
2019-03-11T07:37:28.012Z,5.42
2019-03-11T07:39:59.946Z,4.95
2019-03-11T07:42:31.901Z,4.83
2019-03-11T07:45:04.401Z,4.68
2019-03-11T07:47:36.413Z,4.60
2019-03-11T07:50:08.382Z,4.50
2019-03-11T07:52:40.344Z,4.47
2019-03-11T07:55:12.274Z,4.42
2019-03-11T07:57:44.237Z,4.22
2019-03-11T08:00:16.183Z,3.63
2019-03-11T08:02:48.136Z,3.46
2019-03-11T08:05:20.114Z,3.29
2019-03-11T08:07:52.115Z,3.20
2019-03-11T08:10:24.068Z,3.01
2019-03-11T08:12:56.068Z,2.93
2019-03-11T08:15:28.063Z,2.76
2019-03-11T08:18:00.044Z,2.65
2019-03-11T08:20:31.982Z,2.65
2019-03-11T08:23:03.988Z,2.61
2019-03-11T08:25:35.954Z,2.67
2019-03-11T08:28:07.911Z,2.65
2019-03-11T08:30:39.900Z,2.60
2019-03-11T08:33:11.856Z,2.63
2019-03-11T08:35:43.831Z,2.74
2019-03-11T08:38:15.798Z,2.71
2019-03-11T08:40:47.773Z,2.63
2019-03-11T08:43:19.804Z,2.73
2019-03-11T08:45:51.794Z,2.60
2019-03-11T08:48:23.755Z,2.58
2019-03-11T08:50:55.736Z,2.63
2019-03-11T08:53:27.673Z,2.72
2019-03-11T08:55:59.666Z,2.89
2019-03-11T08:58:31.632Z,3.02
2019-03-11T09:01:03.694Z,3.21
2019-03-11T09:03:35.629Z,3.31
2019-03-11T09:06:07.611Z,3.49
2019-03-11T09:08:39.587Z,3.64
2019-03-11T09:11:11.542Z,3.81
2019-03-11T09:13:43.497Z,4.00
2019-03-11T09:16:15.468Z,4.16
2019-03-11T09:18:47.432Z,4.27
2019-03-11T09:21:19.424Z,4.29
2019-03-11T09:23:51.416Z,4.53
2019-03-11T09:26:23.394Z,4.77
2019-03-11T09:28:55.361Z,5.00
2019-03-11T09:31:27.350Z,5.03
2019-03-11T09:33:59.310Z,5.14
2019-03-11T09:36:31.335Z,5.11
2019-03-11T09:39:04.482Z,5.11
2019-03-11T09:41:36.458Z,5.08
2019-03-11T09:44:08.387Z,5.18
2019-03-11T09:46:40.365Z,5.35
2019-03-11T09:49:12.321Z,5.39
2019-03-11T09:51:44.339Z,5.51
2019-03-11T09:54:16.279Z,5.60
2019-03-11T09:56:48.259Z,5.82
2019-03-11T09:59:20.206Z,6.09
2019-03-11T10:01:52.184Z,6.07
2019-03-11T10:04:24.155Z,6.22
2019-03-11T10:06:56.183Z,6.19
2019-03-11T10:09:28.209Z,6.33
2019-03-11T10:12:00.221Z,6.39
2019-03-11T10:14:32.251Z,6.36
2019-03-11T10:17:04.278Z,6.39
2019-03-11T10:19:36.405Z,6.59
2019-03-11T10:22:08.388Z,6.50
2019-03-11T10:24:40.359Z,6.62
2019-03-11T10:27:12.340Z,6.61
2019-03-11T10:29:44.325Z,6.75
2019-03-11T10:32:16.325Z,6.90
2019-03-11T10:34:48.359Z,6.79
2019-03-11T10:37:20.432Z,6.95
2019-03-11T10:39:52.443Z,6.96
2019-03-11T10:42:24.412Z,6.66
2019-03-11T10:44:56.485Z,6.86
2019-03-11T10:47:28.440Z,6.96
2019-03-11T10:50:00.433Z,7.08
2019-03-11T10:52:32.411Z,7.09
2019-03-11T10:55:05.030Z,7.18
2019-03-11T10:57:36.989Z,7.26
2019-03-11T11:00:15.177Z,7.17
2019-03-11T11:02:47.149Z,7.16
2019-03-11T11:05:19.280Z,7.16
2019-03-11T11:07:51.354Z,7.27
2019-03-11T11:10:23.456Z,7.23
2019-03-11T11:12:55.388Z,7.20
2019-03-11T11:15:27.393Z,7.20
2019-03-11T11:17:59.403Z,7.21
2019-03-11T11:20:31.409Z,7.45
2019-03-11T11:23:03.637Z,7.41
2019-03-11T11:25:35.730Z,7.40
2019-03-11T11:28:07.680Z,7.22
2019-03-11T11:30:39.661Z,7.19
2019-03-11T11:33:11.651Z,7.34
2019-03-11T11:35:43.649Z,7.33
2019-03-11T11:38:15.603Z,7.42
2019-03-11T11:40:47.613Z,7.39
2019-03-11T11:43:20.447Z,7.49
2019-03-11T11:45:52.450Z,7.38
2019-03-11T11:48:24.442Z,7.31
2019-03-11T11:50:57.523Z,7.29
2019-03-11T11:53:29.606Z,7.28
2019-03-11T11:56:01.605Z,7.54
2019-03-11T11:58:33.599Z,7.65
2019-03-11T12:01:05.598Z,7.57
2019-03-11T12:03:38.742Z,7.47
2019-03-11T12:06:10.730Z,7.48
2019-03-11T12:08:42.812Z,7.43
2019-03-11T12:11:14.903Z,7.48
2019-03-11T12:13:48.649Z,7.63
2019-03-11T12:16:20.617Z,7.74
2019-03-11T12:18:52.590Z,7.79
2019-03-11T12:21:24.579Z,7.67
2019-03-11T12:23:56.538Z,7.66
2019-03-11T12:26:28.552Z,7.66
2019-03-11T12:29:00.607Z,7.59
2019-03-11T12:31:32.692Z,7.82
2019-03-11T12:34:04.727Z,7.88
2019-03-11T12:36:36.741Z,7.96
2019-03-11T12:39:08.932Z,8.09
2019-03-11T12:41:41.100Z,7.94
2019-03-11T12:44:13.087Z,8.14
2019-03-11T12:46:45.205Z,8.03
2019-03-11T12:49:17.261Z,7.88
2019-03-11T12:51:50.306Z,7.41
2019-03-11T12:54:22.473Z,6.94
2019-03-11T12:56:54.593Z,6.73
2019-03-11T12:59:26.601Z,6.63
2019-03-11T13:01:58.586Z,6.66
2019-03-11T13:04:30.607Z,6.77
2019-03-11T13:07:03.661Z,6.89
2019-03-11T13:09:35.723Z,7.20
2019-03-11T13:12:07.700Z,7.42
2019-03-11T13:14:39.940Z,7.58
2019-03-11T13:17:11.889Z,7.75
2019-03-11T13:19:43.901Z,7.62
2019-03-11T13:22:17.795Z,7.49
2019-03-11T13:24:49.922Z,7.39
2019-03-11T13:27:21.902Z,7.43
2019-03-11T13:29:53.893Z,7.53
2019-03-11T13:32:27.242Z,7.64
2019-03-11T13:34:59.421Z,7.76
2019-03-11T13:37:31.407Z,7.57
2019-03-11T13:40:04.379Z,7.36
2019-03-11T13:42:36.530Z,7.11
2019-03-11T13:45:08.681Z,6.96
2019-03-11T13:47:40.764Z,6.99
2019-03-11T13:50:13.284Z,6.97
2019-03-11T13:52:46.641Z,6.98
2019-03-11T13:55:18.597Z,7.09
2019-03-11T13:57:51.070Z,7.04
2019-03-11T14:00:24.168Z,6.97
2019-03-11T14:02:56.140Z,7.07
2019-03-11T14:05:28.147Z,7.06
2019-03-11T14:08:00.131Z,7.06
2019-03-11T14:10:32.155Z,6.96
2019-03-11T14:13:04.099Z,6.93
2019-03-11T14:15:36.079Z,7.00
2019-03-11T14:18:09.174Z,7.08
2019-03-11T14:20:42.320Z,7.23
2019-03-11T14:23:14.283Z,7.13
2019-03-11T14:25:46.285Z,7.29
2019-03-11T14:28:20.034Z,7.33
2019-03-11T14:30:52.587Z,7.20
2019-03-11T14:33:24.748Z,7.18
2019-03-11T14:35:56.985Z,7.07
2019-03-11T14:38:28.942Z,7.09
2019-03-11T14:41:00.953Z,7.33
2019-03-11T14:43:32.933Z,7.43
2019-03-11T14:46:04.909Z,7.48
2019-03-11T14:48:36.864Z,7.47
2019-03-11T14:51:08.901Z,7.41
2019-03-11T14:53:40.881Z,7.30
2019-03-11T14:56:12.870Z,7.26
2019-03-11T14:58:44.861Z,7.25
2019-03-11T15:01:17.097Z,7.28
2019-03-11T15:03:49.059Z,7.23
2019-03-11T15:06:22.993Z,7.36
2019-03-11T15:08:55.004Z,7.28
2019-03-11T15:11:27.048Z,7.17
2019-03-11T15:13:59.123Z,6.98
2019-03-11T15:16:31.073Z,6.96
2019-03-11T15:19:03.809Z,6.82
2019-03-11T15:21:35.874Z,6.81
2019-03-11T15:24:07.996Z,6.86
2019-03-11T15:26:39.960Z,6.94
2019-03-11T15:29:12.007Z,7.09
2019-03-11T15:31:44.028Z,6.96
2019-03-11T15:34:17.823Z,7.06
2019-03-11T15:36:49.853Z,7.11
2019-03-11T15:39:21.919Z,7.00
2019-03-11T15:41:53.998Z,7.10
2019-03-11T15:44:27.474Z,7.15
2019-03-11T15:46:59.737Z,7.12
2019-03-11T15:49:31.788Z,7.21
2019-03-11T15:52:03.885Z,7.26
2019-03-11T15:54:35.908Z,7.17
2019-03-11T15:57:07.905Z,7.20
2019-03-11T15:59:39.936Z,7.14
2019-03-11T16:02:11.930Z,7.18
2019-03-11T16:04:43.917Z,7.23
2019-03-11T16:07:15.913Z,7.17
2019-03-11T16:09:47.968Z,7.22
2019-03-11T16:12:19.928Z,7.16
2019-03-11T16:14:51.949Z,7.04
2019-03-11T16:17:23.994Z,6.70
2019-03-11T16:19:55.985Z,6.17
2019-03-11T16:22:27.946Z,5.91
2019-03-11T16:24:59.954Z,5.89
2019-03-11T16:27:32.001Z,5.68
2019-03-11T16:30:06.421Z,5.53
2019-03-11T16:32:38.438Z,5.33
2019-03-11T16:35:10.545Z,5.34
2019-03-11T16:37:42.544Z,5.32
2019-03-11T16:40:14.678Z,5.29
2019-03-11T16:42:46.675Z,5.23
2019-03-11T16:45:59.507Z,5.17
2019-03-11T16:48:31.500Z,5.28
2019-03-11T16:51:03.543Z,5.41
2019-03-11T16:53:35.548Z,5.37
2019-03-11T16:56:07.613Z,5.29
2019-03-11T16:58:39.656Z,5.45
2019-03-11T17:01:12.241Z,5.58
2019-03-11T17:03:44.229Z,5.41
2019-03-11T17:06:16.232Z,5.46
2019-03-11T17:08:48.227Z,5.41
2019-03-11T17:11:20.190Z,5.46
2019-03-11T17:13:52.204Z,5.47
2019-03-11T17:16:24.221Z,5.47
2019-03-11T17:18:56.232Z,5.39
2019-03-11T17:21:28.241Z,5.40
2019-03-11T17:24:00.245Z,5.39
2019-03-11T17:26:32.254Z,5.37
2019-03-11T17:29:04.258Z,5.34
2019-03-11T17:31:36.227Z,5.34
2019-03-11T17:34:08.286Z,5.50
2019-03-11T17:36:40.283Z,5.66
2019-03-11T17:39:12.291Z,5.65
2019-03-11T17:41:44.297Z,5.70
2019-03-11T17:44:16.286Z,5.66
2019-03-11T17:46:48.311Z,5.71
2019-03-11T17:49:20.272Z,5.55
2019-03-11T17:51:52.327Z,5.49
2019-03-11T17:54:24.300Z,5.39
2019-03-11T17:56:56.320Z,5.40
2019-03-11T17:59:28.401Z,5.41
2019-03-11T18:02:00.507Z,5.40
2019-03-11T18:04:32.511Z,5.45
2019-03-11T18:07:04.556Z,5.34
2019-03-11T18:09:36.614Z,5.35
2019-03-11T18:12:08.686Z,5.30
2019-03-11T18:14:40.851Z,5.30
2019-03-11T18:17:12.880Z,5.49
2019-03-11T18:19:44.957Z,5.45
2019-03-11T18:22:17.038Z,5.28
2019-03-11T18:24:49.063Z,5.24
2019-03-11T18:27:21.111Z,5.18
2019-03-11T18:29:53.117Z,5.12
2019-03-11T18:32:25.128Z,5.09
2019-03-11T18:34:57.143Z,5.06
2019-03-11T18:37:29.127Z,5.11
2019-03-11T18:40:01.552Z,5.14
2019-03-11T18:42:33.563Z,5.16
2019-03-11T18:45:05.736Z,5.16
2019-03-11T18:47:37.793Z,5.15
2019-03-11T18:50:10.559Z,5.22
2019-03-11T18:52:42.668Z,5.27
2019-03-11T18:55:15.638Z,5.26
2019-03-11T18:57:47.731Z,5.29
2019-03-11T19:00:20.119Z,5.29
2019-03-11T19:02:52.242Z,5.25
2019-03-11T19:05:24.402Z,5.30
2019-03-11T19:07:56.548Z,5.41
2019-03-11T19:10:28.677Z,5.41
2019-03-11T19:13:00.693Z,5.40
2019-03-11T19:15:32.812Z,5.41
2019-03-11T19:18:04.778Z,5.34
2019-03-11T19:20:36.883Z,5.33
2019-03-11T19:23:08.882Z,5.30
2019-03-11T19:25:41.741Z,5.45
2019-03-11T19:28:13.972Z,5.22
2019-03-11T19:30:46.282Z,5.20
2019-03-11T19:33:18.299Z,5.30
2019-03-11T19:35:50.440Z,5.24
2019-03-11T19:38:22.671Z,5.30
2019-03-11T19:40:54.800Z,5.41
2019-03-11T19:43:29.283Z,5.46
2019-03-11T19:46:00.772Z,5.43
2019-03-11T19:48:32.937Z,5.32
2019-03-11T19:51:04.928Z,5.38
2019-03-11T19:53:37.027Z,5.35
2019-03-11T19:56:09.050Z,5.50
2019-03-11T19:58:41.343Z,5.54
2019-03-11T20:01:13.381Z,5.61
2019-03-11T20:03:45.553Z,5.79
2019-03-11T20:06:17.548Z,5.67
2019-03-11T20:08:49.687Z,5.79
2019-03-11T20:11:21.786Z,5.72
2019-03-11T20:13:53.847Z,5.71
2019-03-11T20:16:25.877Z,5.72
2019-03-11T20:18:57.971Z,5.76
2019-03-11T20:21:30.000Z,5.66
2019-03-11T20:24:02.100Z,5.57
2019-03-11T20:26:34.172Z,5.57
2019-03-11T20:29:06.520Z,5.64
2019-03-11T20:31:38.544Z,5.48
2019-03-11T20:34:10.643Z,5.63
2019-03-11T20:36:42.667Z,5.67
2019-03-11T20:39:14.730Z,5.58
2019-03-11T20:41:46.857Z,5.76
2019-03-11T20:44:18.949Z,5.67
2019-03-11T20:46:51.080Z,5.59
2019-03-11T20:49:23.199Z,5.66
2019-03-11T20:51:55.250Z,5.64
2019-03-11T20:54:27.226Z,5.79
2019-03-11T20:57:01.035Z,5.87
2019-03-11T20:59:33.387Z,5.76
2019-03-11T21:02:05.645Z,5.85
2019-03-11T21:04:37.741Z,5.68
2019-03-11T21:07:09.793Z,5.65
2019-03-11T21:09:41.889Z,5.70
2019-03-11T21:12:13.994Z,5.62
2019-03-11T21:14:46.137Z,5.51
2019-03-11T21:17:25.702Z,5.55
2019-03-11T21:19:52.181Z,5.58
2019-03-11T21:22:24.408Z,5.59
2019-03-11T21:24:59.852Z,5.53
2019-03-11T21:27:30.415Z,5.59
2019-03-11T21:30:02.473Z,5.53
2019-03-11T21:32:34.683Z,5.54
2019-03-11T21:35:07.102Z,5.55
2019-03-11T21:37:39.332Z,5.56
2019-03-11T21:40:13.049Z,5.67
2019-03-11T21:42:45.693Z,5.65
2019-03-11T21:45:18.585Z,5.79
2019-03-11T21:47:51.279Z,5.82
2019-03-11T21:50:23.457Z,5.76
2019-03-11T21:52:55.494Z,5.82
2019-03-11T21:55:27.944Z,5.82
2019-03-11T21:58:12.454Z,5.78
2019-03-11T22:00:54.131Z,5.85
2019-03-11T22:03:26.126Z,5.86
2019-03-11T22:05:58.168Z,5.74
2019-03-11T22:08:30.392Z,5.84
2019-03-11T22:11:02.380Z,6.01
2019-03-11T22:13:34.476Z,6.08
2019-03-11T22:16:06.450Z,5.83
2019-03-11T22:18:38.581Z,5.83
2019-03-11T22:21:12.495Z,5.92
2019-03-11T22:23:44.497Z,5.93
2019-03-11T22:26:16.466Z,5.91
2019-03-11T22:28:49.584Z,5.94
2019-03-11T22:31:21.590Z,6.00
2019-03-11T22:33:53.731Z,6.08
2019-03-11T22:36:25.726Z,5.99
2019-03-11T22:38:57.702Z,5.91
2019-03-11T22:41:29.705Z,6.07
2019-03-11T22:44:01.810Z,6.05
2019-03-11T22:46:33.863Z,5.99
2019-03-11T22:49:05.854Z,6.04
2019-03-11T22:51:37.867Z,6.08
2019-03-11T22:57:09.418Z,6.07
2019-03-11T22:59:41.447Z,6.01
2019-03-11T23:02:54.230Z,6.12
2019-03-11T23:05:26.328Z,6.04
2019-03-11T23:07:58.392Z,6.05
2019-03-11T23:10:30.491Z,6.00
2019-03-11T23:13:02.447Z,6.04
2019-03-11T23:15:34.426Z,5.99
2019-03-11T23:18:06.393Z,5.98
2019-03-11T23:20:38.482Z,6.04
2019-03-11T23:23:10.545Z,5.91
2019-03-11T23:25:42.516Z,6.00
2019-03-11T23:28:14.651Z,5.95
2019-03-11T23:30:46.744Z,6.07
2019-03-11T23:33:18.777Z,6.03
2019-03-11T23:35:51.019Z,6.17
2019-03-11T23:38:22.955Z,6.14
2019-03-11T23:40:54.954Z,6.07
2019-03-11T23:43:27.014Z,6.04
2019-03-11T23:45:58.980Z,6.12
2019-03-11T23:48:30.941Z,5.98
2019-03-11T23:53:41.558Z,6.03
2019-03-11T23:56:13.529Z,6.00
2019-03-11T23:58:45.486Z,5.94
